createdAt,value
2018-01-30T05:00:54.259Z,0
2018-01-30T05:01:19.741Z,0
2018-01-30T05:01:45.208Z,0
2018-01-30T05:02:10.708Z,0
2018-01-30T05:02:36.201Z,0
2018-01-30T05:03:44.895Z,0
2018-01-30T05:04:10.366Z,0
2018-01-30T05:04:35.819Z,0
2018-01-30T05:05:01.287Z,0
2018-01-30T05:05:26.768Z,0
2018-01-30T05:05:52.286Z,0
2018-01-30T05:06:17.793Z,0
2018-01-30T05:06:43.315Z,0
2018-01-30T05:07:08.780Z,0
2018-01-30T05:07:34.302Z,0
2018-01-30T05:07:59.805Z,0
2018-01-30T05:08:25.304Z,0
2018-01-30T05:08:50.818Z,0
2018-01-30T05:09:16.311Z,0
2018-01-30T05:10:25.042Z,0
2018-01-30T05:10:50.520Z,0
2018-01-30T05:11:15.971Z,0
2018-01-30T05:11:41.451Z,0
2018-01-30T05:12:06.965Z,0
2018-01-30T05:13:15.659Z,0
2018-01-30T05:13:41.188Z,0
2018-01-30T05:14:06.684Z,0
2018-01-30T05:14:32.140Z,0
2018-01-30T05:14:57.602Z,0
2018-01-30T05:15:23.091Z,0
2018-01-30T05:16:31.792Z,0
2018-01-30T05:16:57.404Z,0
2018-01-30T05:17:22.913Z,0
2018-01-30T05:17:48.462Z,0
2018-01-30T05:18:13.882Z,0
2018-01-30T05:18:39.427Z,0
2018-01-30T05:19:04.906Z,0
2018-01-30T05:19:30.428Z,0
2018-01-30T05:20:44.238Z,0
2018-01-30T05:21:09.738Z,0
2018-01-30T05:21:35.279Z,0
2018-01-30T05:22:00.725Z,0
2018-01-30T05:22:26.246Z,0
2018-01-30T05:22:51.725Z,0
2018-01-30T05:23:17.214Z,0
2018-01-30T05:23:42.717Z,0
2018-01-30T05:24:08.285Z,0
2018-01-30T05:24:33.727Z,0
2018-01-30T05:24:59.179Z,0
2018-01-30T05:26:28.232Z,0
2018-01-30T05:26:53.723Z,0
2018-01-30T05:27:19.266Z,0
2018-01-30T05:27:44.762Z,0
2018-01-30T05:28:10.208Z,0
2018-01-30T05:28:35.709Z,0
2018-01-30T05:29:01.140Z,0
2018-01-30T05:29:26.585Z,0
2018-01-30T05:29:52.064Z,0
2018-01-30T05:30:17.597Z,0
2018-01-30T05:30:43.078Z,0
2018-01-30T05:31:08.576Z,0
2018-01-30T05:31:34.115Z,0
2018-01-30T05:31:59.593Z,0
2018-01-30T05:32:25.072Z,0
2018-01-30T05:32:50.579Z,0
2018-01-30T05:34:14.538Z,0
2018-01-30T05:34:40.053Z,0
2018-01-30T05:35:05.530Z,0
2018-01-30T05:35:31.077Z,0
2018-01-30T05:35:56.585Z,0
2018-01-30T05:36:22.125Z,0
2018-01-30T05:36:47.655Z,0
2018-01-30T05:37:13.181Z,0
2018-01-30T05:37:38.650Z,0
2018-01-30T05:38:52.419Z,0
2018-01-30T05:39:17.912Z,0
2018-01-30T05:39:43.385Z,0
2018-01-30T05:40:08.915Z,0
2018-01-30T05:40:34.396Z,0
2018-01-30T05:40:59.856Z,0
2018-01-30T05:41:25.356Z,0
2018-01-30T05:41:50.827Z,0
2018-01-30T05:42:16.363Z,0
2018-01-30T05:42:41.864Z,0
2018-01-30T05:43:07.349Z,0
2018-01-30T05:43:32.849Z,0
2018-01-30T05:43:58.316Z,0
2018-01-30T05:44:23.823Z,0
2018-01-30T05:44:49.319Z,0
2018-01-30T05:45:14.898Z,0
2018-01-30T05:45:40.373Z,0
2018-01-30T05:46:05.866Z,0
2018-01-30T05:46:31.357Z,0
2018-01-30T05:46:56.857Z,0
2018-01-30T05:47:22.320Z,0
2018-01-30T05:47:47.821Z,0
2018-01-30T05:48:13.285Z,0
2018-01-30T05:48:38.761Z,0
2018-01-30T05:49:04.214Z,0
2018-01-30T05:49:29.708Z,0
2018-01-30T05:49:55.186Z,0
2018-01-30T05:50:20.741Z,0
2018-01-30T05:50:46.222Z,0
2018-01-30T05:51:11.768Z,0
2018-01-30T05:51:37.302Z,0
2018-01-30T05:52:02.796Z,0
2018-01-30T05:52:28.292Z,0
2018-01-30T05:52:53.798Z,0
2018-01-30T05:53:19.295Z,0
2018-01-30T05:53:44.750Z,0
2018-01-30T05:54:10.233Z,0
2018-01-30T05:54:35.780Z,0
2018-01-30T05:55:01.270Z,0
2018-01-30T05:55:26.745Z,0
2018-01-30T05:55:52.281Z,0
2018-01-30T05:56:17.784Z,0
2018-01-30T05:56:43.339Z,0
2018-01-30T05:57:08.809Z,0
2018-01-30T05:57:34.320Z,0
2018-01-30T05:57:59.845Z,0
2018-01-30T05:58:25.376Z,0
2018-01-30T05:58:50.843Z,0
2018-01-30T05:59:16.325Z,0
2018-01-30T05:59:41.834Z,0
2018-01-30T06:00:07.343Z,0
2018-01-30T06:00:32.828Z,0
2018-01-30T06:00:58.329Z,0
2018-01-30T06:01:23.911Z,0
2018-01-30T06:01:49.387Z,0
2018-01-30T06:02:14.866Z,0
2018-01-30T06:02:40.354Z,0
2018-01-30T06:03:05.836Z,0
2018-01-30T06:03:31.350Z,0
2018-01-30T06:03:56.899Z,0
2018-01-30T06:04:22.519Z,0
2018-01-30T06:04:48.218Z,0
2018-01-30T06:05:13.700Z,0
2018-01-30T06:05:39.175Z,0
2018-01-30T06:06:04.663Z,0
2018-01-30T06:06:30.203Z,0
2018-01-30T06:06:55.644Z,0
2018-01-30T06:07:21.139Z,0
2018-01-30T06:07:46.588Z,0
2018-01-30T06:08:12.107Z,0
2018-01-30T06:08:37.614Z,0
2018-01-30T06:09:03.205Z,0
2018-01-30T06:09:28.688Z,0
2018-01-30T06:09:54.213Z,0
2018-01-30T06:10:19.659Z,0
2018-01-30T06:10:45.128Z,0
2018-01-30T06:11:10.646Z,0
2018-01-30T06:11:36.100Z,0
2018-01-30T06:12:01.613Z,0
2018-01-30T06:12:27.142Z,0
2018-01-30T06:12:52.701Z,0
2018-01-30T06:13:18.254Z,0
2018-01-30T06:13:43.655Z,0
2018-01-30T06:14:09.148Z,0
2018-01-30T06:14:34.635Z,0
2018-01-30T06:15:00.116Z,0
2018-01-30T06:15:25.600Z,0
2018-01-30T06:15:51.076Z,0
2018-01-30T06:16:16.603Z,0
2018-01-30T06:16:42.085Z,0
2018-01-30T06:17:07.556Z,0
2018-01-30T06:17:33.014Z,0
2018-01-30T06:17:58.522Z,0
2018-01-30T06:18:24.010Z,0
2018-01-30T06:18:49.516Z,0
2018-01-30T06:19:15.059Z,0
2018-01-30T06:19:40.546Z,0
2018-01-30T06:20:06.056Z,0
2018-01-30T06:20:31.593Z,0
2018-01-30T06:20:57.134Z,0
2018-01-30T06:21:22.639Z,0
2018-01-30T06:21:48.147Z,0
2018-01-30T06:22:13.639Z,0
2018-01-30T06:22:39.096Z,0
2018-01-30T06:23:04.613Z,0
2018-01-30T06:23:30.093Z,0
2018-01-30T06:23:55.589Z,0
2018-01-30T06:24:21.122Z,0
2018-01-30T06:25:35.932Z,0
2018-01-30T06:26:01.432Z,0
2018-01-30T06:26:26.918Z,0
2018-01-30T06:26:52.460Z,0
2018-01-30T06:27:18.026Z,0
2018-01-30T06:27:43.495Z,0
2018-01-30T06:28:08.948Z,0
2018-01-30T06:28:34.467Z,0
2018-01-30T06:28:59.937Z,0
2018-01-30T06:29:25.452Z,0
2018-01-30T06:29:50.938Z,0
2018-01-30T06:30:16.488Z,0
2018-01-30T06:30:41.964Z,0
2018-01-30T06:31:07.548Z,0
2018-01-30T06:32:26.434Z,0
2018-01-30T06:32:51.932Z,0
2018-01-30T06:33:17.443Z,0
2018-01-30T06:33:42.933Z,0
2018-01-30T06:34:08.431Z,0
2018-01-30T06:35:32.425Z,0
2018-01-30T06:35:57.928Z,0
2018-01-30T06:36:23.439Z,0
2018-01-30T06:36:48.949Z,0
2018-01-30T06:37:14.467Z,0
2018-01-30T06:37:39.968Z,0
2018-01-30T06:38:05.537Z,0
2018-01-30T06:38:31.010Z,0
2018-01-30T06:38:56.533Z,0
2018-01-30T06:39:21.997Z,0
2018-01-30T06:39:47.550Z,0
2018-01-30T06:40:13.040Z,0
2018-01-30T06:40:38.511Z,0
2018-01-30T06:41:57.496Z,0
2018-01-30T06:42:23.031Z,0
2018-01-30T06:42:48.524Z,0
2018-01-30T06:43:14.010Z,0
2018-01-30T06:44:43.057Z,0
2018-01-30T06:45:08.563Z,0
2018-01-30T06:45:34.056Z,0
2018-01-30T06:46:53.802Z,0
2018-01-30T06:47:19.299Z,0
2018-01-30T06:47:44.797Z,0
2018-01-30T06:48:10.340Z,0
2018-01-30T06:48:35.817Z,0
2018-01-30T06:49:01.314Z,0
2018-01-30T06:49:26.797Z,0
2018-01-30T06:49:52.259Z,0
2018-01-30T06:50:17.782Z,0
2018-01-30T06:50:43.254Z,0
2018-01-30T06:51:08.788Z,0
2018-01-30T06:52:22.526Z,0
2018-01-30T06:52:48.035Z,0
2018-01-30T06:53:13.530Z,0
2018-01-30T06:53:38.997Z,0
2018-01-30T06:54:04.466Z,0
2018-01-30T06:54:29.972Z,0
2018-01-30T06:54:55.509Z,0
2018-01-30T06:55:20.971Z,0
2018-01-30T06:55:46.455Z,0
2018-01-30T06:56:11.963Z,0
2018-01-30T06:57:41.102Z,0
2018-01-30T06:58:06.576Z,0
2018-01-30T06:58:32.094Z,0
2018-01-30T06:58:57.565Z,0
2018-01-30T06:59:23.066Z,0
2018-01-30T06:59:48.584Z,0
2018-01-30T07:00:14.067Z,0
2018-01-30T07:00:39.562Z,0
2018-01-30T07:01:05.086Z,0
2018-01-30T07:01:30.625Z,0
2018-01-30T07:01:56.164Z,0
2018-01-30T07:02:21.615Z,0
2018-01-30T07:02:47.182Z,0
2018-01-30T07:03:12.643Z,0
2018-01-30T07:03:38.180Z,0
2018-01-30T07:04:03.703Z,0
2018-01-30T07:04:29.199Z,0
2018-01-30T07:04:54.676Z,0
2018-01-30T07:05:20.182Z,0
2018-01-30T07:05:45.682Z,0
2018-01-30T07:06:11.158Z,0
2018-01-30T07:06:36.647Z,0
2018-01-30T07:07:02.082Z,0
2018-01-30T07:07:27.586Z,0
2018-01-30T07:07:53.080Z,0
2018-01-30T07:08:18.574Z,5
2018-01-30T07:08:44.098Z,5
2018-01-30T07:09:09.617Z,5
2018-01-30T07:09:35.126Z,5
2018-01-30T07:10:00.629Z,5
2018-01-30T07:10:26.115Z,5
2018-01-30T07:10:51.653Z,5
2018-01-30T07:11:17.088Z,5
2018-01-30T07:11:42.594Z,5
2018-01-30T07:12:08.117Z,5
2018-01-30T07:12:33.615Z,5
2018-01-30T07:12:59.135Z,5
2018-01-30T07:13:24.576Z,5
2018-01-30T07:13:50.094Z,5
2018-01-30T07:15:19.216Z,5
2018-01-30T07:15:44.698Z,5
2018-01-30T07:16:10.279Z,5
2018-01-30T07:16:35.812Z,5
2018-01-30T07:17:01.290Z,5
2018-01-30T07:17:26.786Z,5
2018-01-30T07:17:52.330Z,10
2018-01-30T07:18:17.785Z,10
2018-01-30T07:18:43.321Z,10
2018-01-30T07:19:08.850Z,10
2018-01-30T07:19:34.337Z,10
2018-01-30T07:19:59.814Z,10
2018-01-30T07:20:25.304Z,10
2018-01-30T07:21:44.184Z,10
2018-01-30T07:22:09.688Z,10
2018-01-30T07:22:35.175Z,10
2018-01-30T07:23:00.682Z,10
2018-01-30T07:23:26.179Z,10
2018-01-30T07:24:50.188Z,15
2018-01-30T07:25:15.689Z,15
2018-01-30T07:25:41.217Z,15
2018-01-30T07:26:06.777Z,15
2018-01-30T07:26:32.512Z,15
2018-01-30T07:26:57.995Z,15
2018-01-30T07:27:23.489Z,15
2018-01-30T07:27:49.035Z,15
2018-01-30T07:28:14.550Z,15
2018-01-30T07:28:40.006Z,15
2018-01-30T07:29:05.477Z,15
2018-01-30T07:29:30.981Z,15
2018-01-30T07:29:56.583Z,15
2018-01-30T07:30:22.055Z,15
2018-01-30T07:30:47.546Z,15
2018-01-30T07:31:13.057Z,20
2018-01-30T07:31:38.641Z,20
2018-01-30T07:32:04.119Z,20
2018-01-30T07:32:29.604Z,20
2018-01-30T07:32:55.182Z,20
2018-01-30T07:33:20.689Z,20
2018-01-30T07:33:46.184Z,20
2018-01-30T07:34:11.673Z,20
2018-01-30T07:35:22.000Z,20
2018-01-30T07:35:47.465Z,20
2018-01-30T07:36:12.958Z,20
2018-01-30T07:36:38.439Z,25
2018-01-30T07:37:52.207Z,25
2018-01-30T07:38:17.702Z,25
2018-01-30T07:38:43.187Z,25
2018-01-30T07:39:08.694Z,25
2018-01-30T07:39:34.186Z,25
2018-01-30T07:39:59.722Z,25
2018-01-30T07:40:25.232Z,25
2018-01-30T07:40:50.740Z,25
2018-01-30T07:41:16.235Z,25
2018-01-30T07:41:41.729Z,30
2018-01-30T07:42:07.225Z,30
2018-01-30T07:42:32.753Z,30
2018-01-30T07:42:58.254Z,30
2018-01-30T07:43:23.779Z,30
2018-01-30T07:44:47.796Z,30
2018-01-30T07:45:13.275Z,30
2018-01-30T07:45:38.771Z,30
2018-01-30T07:46:04.263Z,30
2018-01-30T07:46:29.788Z,30
2018-01-30T07:46:55.260Z,35
2018-01-30T07:47:20.743Z,35
2018-01-30T07:47:46.238Z,30
2018-01-30T07:48:11.729Z,30
2018-01-30T07:48:37.230Z,35
2018-01-30T07:49:02.745Z,35
2018-01-30T07:50:31.855Z,35
2018-01-30T07:50:57.360Z,35
2018-01-30T07:51:22.834Z,35
2018-01-30T07:51:48.396Z,35
2018-01-30T07:52:13.807Z,35
2018-01-30T07:52:39.304Z,40
2018-01-30T07:53:05.088Z,40
2018-01-30T07:53:30.633Z,40
2018-01-30T07:53:56.109Z,40
2018-01-30T07:54:21.635Z,40
2018-01-30T07:54:47.119Z,40
2018-01-30T07:55:12.593Z,40
2018-01-30T07:55:38.084Z,40
2018-01-30T07:56:57.003Z,40
2018-01-30T07:57:22.491Z,40
2018-01-30T07:57:47.950Z,40
2018-01-30T07:58:13.425Z,40
2018-01-30T07:58:38.956Z,40
2018-01-30T07:59:04.474Z,45
2018-01-30T07:59:30.021Z,45
2018-01-30T07:59:55.500Z,45
2018-01-30T08:00:21.024Z,45
2018-01-30T08:00:46.528Z,45
2018-01-30T08:01:12.011Z,45
2018-01-30T08:02:41.149Z,40
2018-01-30T08:03:06.611Z,40
2018-01-30T08:03:32.166Z,45
2018-01-30T08:03:57.676Z,45
2018-01-30T08:04:23.145Z,40
2018-01-30T08:04:48.711Z,40
2018-01-30T08:05:14.165Z,40
2018-01-30T08:05:39.653Z,35
2018-01-30T08:06:05.141Z,35
2018-01-30T08:06:30.633Z,40
2018-01-30T08:06:56.144Z,40
2018-01-30T08:07:21.593Z,35
2018-01-30T08:07:47.069Z,35
2018-01-30T08:08:12.586Z,35
2018-01-30T08:08:38.127Z,35
2018-01-30T08:09:03.613Z,35
2018-01-30T08:09:29.064Z,35
2018-01-30T08:09:54.615Z,35
2018-01-30T08:10:20.081Z,35
2018-01-30T08:10:45.558Z,35
2018-01-30T08:11:11.077Z,35
2018-01-30T08:11:36.632Z,45
2018-01-30T08:12:02.099Z,45
2018-01-30T08:12:27.609Z,50
2018-01-30T08:12:53.117Z,45
2018-01-30T08:13:18.608Z,45
2018-01-30T08:13:44.091Z,45
2018-01-30T08:14:09.560Z,45
2018-01-30T08:14:35.052Z,40
2018-01-30T08:15:00.575Z,45
2018-01-30T08:16:24.562Z,55
2018-01-30T08:16:50.060Z,55
2018-01-30T08:17:15.568Z,60
2018-01-30T08:17:41.065Z,60
2018-01-30T08:18:06.535Z,60
2018-01-30T08:18:32.075Z,60
2018-01-30T08:18:57.532Z,60
2018-01-30T08:19:23.051Z,60
2018-01-30T08:19:48.512Z,55
2018-01-30T08:20:14.016Z,50
2018-01-30T08:20:39.485Z,50
2018-01-30T08:21:04.973Z,50
2018-01-30T08:21:30.475Z,50
2018-01-30T08:21:55.991Z,45
2018-01-30T08:22:21.410Z,45
2018-01-30T08:22:46.904Z,45
2018-01-30T08:25:20.596Z,45
2018-01-30T08:25:46.063Z,45
2018-01-30T08:26:11.552Z,45
2018-01-30T08:26:37.029Z,45
2018-01-30T08:27:02.541Z,45
2018-01-30T08:27:28.020Z,50
2018-01-30T08:27:53.482Z,50
2018-01-30T08:28:19.011Z,50
2018-01-30T08:28:44.505Z,50
2018-01-30T08:29:10.011Z,55
2018-01-30T08:29:35.509Z,55
2018-01-30T08:30:01.005Z,55
2018-01-30T08:30:26.520Z,60
2018-01-30T08:30:51.993Z,55
2018-01-30T08:32:22.120Z,55
2018-01-30T08:32:47.608Z,55
2018-01-30T08:33:13.110Z,55
2018-01-30T08:33:38.558Z,60
2018-01-30T08:34:04.060Z,60
2018-01-30T08:35:28.072Z,55
2018-01-30T08:35:53.836Z,55
2018-01-30T08:36:19.329Z,55
2018-01-30T08:36:44.832Z,55
2018-01-30T08:37:10.366Z,55
2018-01-30T08:37:35.831Z,55
2018-01-30T08:38:01.367Z,60
2018-01-30T08:38:26.839Z,60
2018-01-30T08:38:52.434Z,60
2018-01-30T08:39:17.927Z,60
2018-01-30T08:39:43.437Z,60
2018-01-30T08:40:08.950Z,55
2018-01-30T08:40:34.443Z,55
2018-01-30T08:40:59.957Z,60
2018-01-30T08:41:25.442Z,55
2018-01-30T08:41:50.965Z,50
2018-01-30T08:42:16.436Z,55
2018-01-30T08:42:41.908Z,55
2018-01-30T08:43:07.385Z,60
2018-01-30T08:43:32.898Z,65
2018-01-30T08:43:58.386Z,65
2018-01-30T08:44:23.868Z,70
2018-01-30T08:44:49.368Z,75
2018-01-30T08:45:14.873Z,75
2018-01-30T08:45:40.434Z,75
2018-01-30T08:46:05.915Z,75
2018-01-30T08:46:31.399Z,80
2018-01-30T08:46:56.907Z,90
2018-01-30T08:47:22.412Z,105
2018-01-30T08:47:47.862Z,110
2018-01-30T08:48:56.567Z,105
2018-01-30T08:50:20.560Z,115
2018-01-30T08:50:46.054Z,120
2018-01-30T08:51:11.539Z,120
2018-01-30T08:51:37.010Z,130
2018-01-30T08:53:01.049Z,125
2018-01-30T08:53:26.529Z,110
2018-01-30T08:53:51.985Z,105
2018-01-30T08:54:17.497Z,110
2018-01-30T08:54:43.023Z,105
2018-01-30T08:55:08.516Z,120
2018-01-30T08:55:34.045Z,110
2018-01-30T08:55:59.542Z,95
2018-01-30T08:56:25.149Z,95
2018-01-30T08:56:50.636Z,105
2018-01-30T08:57:16.115Z,100
2018-01-30T08:57:41.623Z,100
2018-01-30T08:58:07.114Z,95
2018-01-30T08:59:26.011Z,115
2018-01-30T08:59:51.501Z,120
2018-01-30T09:00:16.970Z,120
2018-01-30T09:00:42.434Z,125
2018-01-30T09:01:07.922Z,115
2018-01-30T09:02:31.915Z,125
2018-01-30T09:02:57.425Z,125
2018-01-30T09:03:22.909Z,125
2018-01-30T09:03:48.445Z,130
2018-01-30T09:05:08.113Z,115
2018-01-30T09:05:33.598Z,105
2018-01-30T09:05:59.048Z,115
2018-01-30T09:06:24.509Z,120
2018-01-30T09:06:50.046Z,115
2018-01-30T09:07:15.487Z,115
2018-01-30T09:07:40.938Z,115
2018-01-30T09:08:06.408Z,120
2018-01-30T09:08:31.921Z,130
2018-01-30T09:08:57.389Z,110
2018-01-30T09:09:22.850Z,115
2018-01-30T09:10:46.861Z,105
2018-01-30T09:11:12.361Z,110
2018-01-30T09:11:37.837Z,115
2018-01-30T09:12:03.297Z,115
2018-01-30T09:12:28.772Z,110
2018-01-30T09:12:54.269Z,115
2018-01-30T09:13:19.741Z,125
2018-01-30T09:13:45.230Z,125
2018-01-30T09:14:10.754Z,120
2018-01-30T09:14:36.212Z,115
2018-01-30T09:15:01.731Z,110
2018-01-30T09:15:27.218Z,95
2018-01-30T09:15:52.713Z,90
2018-01-30T09:16:18.152Z,85
2018-01-30T09:16:43.607Z,90
2018-01-30T09:17:09.093Z,100
2018-01-30T09:17:34.553Z,100
2018-01-30T09:18:00.013Z,100
2018-01-30T09:19:13.798Z,105
2018-01-30T09:19:39.289Z,100
2018-01-30T09:20:04.776Z,105
2018-01-30T09:20:30.293Z,115
2018-01-30T09:20:55.784Z,125
2018-01-30T09:21:21.283Z,135
2018-01-30T09:21:46.762Z,130
2018-01-30T09:22:12.231Z,125
2018-01-30T09:22:37.740Z,130
2018-01-30T09:23:03.212Z,115
2018-01-30T09:23:28.769Z,105
2018-01-30T09:24:57.865Z,125
2018-01-30T09:25:23.384Z,115
2018-01-30T09:25:48.832Z,120
2018-01-30T09:26:14.331Z,125
2018-01-30T09:26:39.863Z,115
2018-01-30T09:27:05.334Z,120
2018-01-30T09:27:30.799Z,115
2018-01-30T09:27:56.315Z,125
2018-01-30T09:28:21.814Z,110
2018-01-30T09:28:47.362Z,110
2018-01-30T09:29:12.861Z,115
2018-01-30T09:29:38.357Z,115
2018-01-30T09:31:02.344Z,105
2018-01-30T09:31:27.842Z,105
2018-01-30T09:31:53.350Z,105
2018-01-30T09:32:18.853Z,110
2018-01-30T09:32:44.339Z,110
2018-01-30T09:33:53.050Z,125
2018-01-30T09:34:18.547Z,120
2018-01-30T09:34:44.025Z,115
2018-01-30T09:35:09.531Z,130
2018-01-30T09:35:35.044Z,135
2018-01-30T09:36:00.561Z,145
2018-01-30T09:36:26.038Z,150
2018-01-30T09:36:51.542Z,155
2018-01-30T09:37:17.024Z,170
2018-01-30T09:37:42.510Z,155
2018-01-30T09:38:08.016Z,140
2018-01-30T09:38:33.514Z,120
2018-01-30T09:38:59.055Z,110
2018-01-30T09:39:24.528Z,115
2018-01-30T09:39:50.047Z,150
2018-01-30T09:40:15.550Z,185
2018-01-30T09:40:41.058Z,180
2018-01-30T09:41:06.527Z,175
2018-01-30T09:41:32.011Z,160
2018-01-30T09:41:57.518Z,175
2018-01-30T09:42:22.971Z,160
2018-01-30T09:42:48.485Z,155
2018-01-30T09:43:13.943Z,140
2018-01-30T09:44:37.951Z,125
2018-01-30T09:45:03.441Z,135
2018-01-30T09:45:28.934Z,150
2018-01-30T09:45:54.380Z,150
2018-01-30T09:46:19.868Z,145
2018-01-30T09:46:45.345Z,145
2018-01-30T09:47:10.887Z,155
2018-01-30T09:48:29.795Z,180
2018-01-30T09:48:55.272Z,165
2018-01-30T09:49:20.769Z,140
2018-01-30T09:49:46.306Z,140
2018-01-30T09:50:11.855Z,145
2018-01-30T09:50:37.273Z,150
2018-01-30T09:51:02.791Z,175
2018-01-30T09:51:28.278Z,170
2018-01-30T09:51:53.753Z,165
2018-01-30T09:52:19.234Z,165
2018-01-30T09:52:44.724Z,155
2018-01-30T09:53:53.429Z,135
2018-01-30T09:54:18.931Z,130
2018-01-30T09:54:44.428Z,135
2018-01-30T09:55:09.921Z,130
2018-01-30T09:55:35.376Z,135
2018-01-30T09:56:00.847Z,150
2018-01-30T09:56:26.363Z,160
2018-01-30T09:56:51.864Z,140
2018-01-30T09:57:17.357Z,140
2018-01-30T09:57:42.844Z,130
2018-01-30T09:58:08.311Z,130
2018-01-30T09:58:33.819Z,135
2018-01-30T09:58:59.326Z,145
2018-01-30T09:59:24.828Z,130
2018-01-30T09:59:50.331Z,125
2018-01-30T10:00:15.811Z,130
2018-01-30T10:00:41.313Z,120
2018-01-30T10:01:06.801Z,135
2018-01-30T10:01:32.291Z,140
2018-01-30T10:01:57.838Z,150
2018-01-30T10:02:23.336Z,155
2018-01-30T10:02:48.820Z,145
2018-01-30T10:03:14.321Z,140
2018-01-30T10:03:39.791Z,160
2018-01-30T10:04:05.353Z,175
2018-01-30T10:04:30.857Z,150
2018-01-30T10:04:56.304Z,160
2018-01-30T10:05:21.781Z,180
2018-01-30T10:05:47.292Z,205
2018-01-30T10:06:12.800Z,200
2018-01-30T10:06:38.298Z,215
2018-01-30T10:07:03.803Z,195
2018-01-30T10:07:29.304Z,205
2018-01-30T10:07:54.785Z,210
2018-01-30T10:08:20.285Z,205
2018-01-30T10:08:45.800Z,205
2018-01-30T10:09:11.280Z,205
2018-01-30T10:09:36.776Z,185
2018-01-30T10:10:02.241Z,185
2018-01-30T10:10:27.781Z,185
2018-01-30T10:10:53.329Z,195
2018-01-30T10:11:18.804Z,200
2018-01-30T10:11:44.287Z,205
2018-01-30T10:12:09.854Z,210
2018-01-30T10:12:35.329Z,215
2018-01-30T10:13:59.368Z,220
2018-01-30T10:14:24.843Z,220
2018-01-30T10:14:50.314Z,220
2018-01-30T10:15:15.777Z,190
2018-01-30T10:15:41.221Z,175
2018-01-30T10:16:06.687Z,185
2018-01-30T10:16:32.177Z,210
2018-01-30T10:16:57.656Z,255
2018-01-30T10:17:23.131Z,255
2018-01-30T10:17:48.604Z,245
2018-01-30T10:18:14.090Z,245
2018-01-30T10:18:39.625Z,235
2018-01-30T10:19:05.112Z,225
2018-01-30T10:19:30.602Z,240
2018-01-30T10:19:56.101Z,255
2018-01-30T10:20:21.589Z,250
2018-01-30T10:20:47.114Z,245
2018-01-30T10:21:12.574Z,250
2018-01-30T10:21:38.059Z,240
2018-01-30T10:22:56.970Z,215
2018-01-30T10:23:22.451Z,210
2018-01-30T10:23:47.936Z,220
2018-01-30T10:24:13.400Z,225
2018-01-30T10:24:38.895Z,225
2018-01-30T10:26:02.895Z,230
2018-01-30T10:26:28.397Z,250
2018-01-30T10:26:53.915Z,260
2018-01-30T10:27:19.408Z,245
2018-01-30T10:27:44.894Z,265
2018-01-30T10:28:10.360Z,260
2018-01-30T10:28:35.870Z,260
2018-01-30T10:29:01.342Z,245
2018-01-30T10:29:26.850Z,210
2018-01-30T10:29:52.355Z,190
2018-01-30T10:30:17.825Z,195
2018-01-30T10:30:43.302Z,195
2018-01-30T10:31:08.835Z,180
2018-01-30T10:32:27.789Z,195
2018-01-30T10:32:53.259Z,215
2018-01-30T10:33:18.731Z,225
2018-01-30T10:33:44.252Z,220
2018-01-30T10:34:09.765Z,205
2018-01-30T10:34:35.261Z,230
2018-01-30T10:35:00.772Z,220
2018-01-30T10:35:26.277Z,210
2018-01-30T10:35:51.800Z,230
2018-01-30T10:36:17.303Z,260
2018-01-30T10:36:42.805Z,250
2018-01-30T10:37:08.301Z,245
2018-01-30T10:37:33.791Z,240
2018-01-30T10:37:59.257Z,220
2018-01-30T10:38:24.726Z,210
2018-01-30T10:38:50.199Z,200
2018-01-30T10:39:15.693Z,215
2018-01-30T10:39:41.176Z,215
2018-01-30T10:40:06.695Z,195
2018-01-30T10:40:32.182Z,180
2018-01-30T10:41:40.895Z,175
2018-01-30T10:42:06.392Z,200
2018-01-30T10:42:31.879Z,200
2018-01-30T10:43:40.597Z,190
2018-01-30T10:44:06.075Z,180
2018-01-30T10:44:31.590Z,160
2018-01-30T10:44:57.088Z,155
2018-01-30T10:45:22.589Z,150
2018-01-30T10:45:48.106Z,150
2018-01-30T10:46:13.609Z,165
2018-01-30T10:46:39.081Z,165
2018-01-30T10:47:04.554Z,165
2018-01-30T10:47:30.081Z,155
2018-01-30T10:47:55.548Z,155
2018-01-30T10:48:21.039Z,160
2018-01-30T10:48:46.539Z,170
2018-01-30T10:49:12.007Z,185
2018-01-30T10:49:37.486Z,175
2018-01-30T10:50:02.973Z,160
2018-01-30T10:50:28.483Z,150
2018-01-30T10:50:53.990Z,155
2018-01-30T10:51:19.509Z,170
2018-01-30T10:51:45.029Z,190
2018-01-30T10:52:58.817Z,160
2018-01-30T10:54:07.525Z,190
2018-01-30T10:54:33.010Z,175
2018-01-30T10:54:58.510Z,165
2018-01-30T10:55:23.983Z,150
2018-01-30T10:56:48.054Z,135
2018-01-30T10:57:13.537Z,135
2018-01-30T10:57:39.035Z,120
2018-01-30T10:58:04.512Z,125
2018-01-30T10:58:29.983Z,110
2018-01-30T10:58:55.489Z,120
2018-01-30T10:59:20.962Z,135
2018-01-30T10:59:46.443Z,145
2018-01-30T11:00:11.952Z,155
2018-01-30T11:00:37.451Z,170
2018-01-30T11:01:46.182Z,185
2018-01-30T11:02:11.650Z,180
2018-01-30T11:02:37.163Z,175
2018-01-30T11:03:02.622Z,185
2018-01-30T11:04:31.743Z,150
2018-01-30T11:04:57.239Z,140
2018-01-30T11:05:22.717Z,140
2018-01-30T11:05:48.217Z,135
2018-01-30T11:06:13.702Z,135
2018-01-30T11:06:39.193Z,140
2018-01-30T11:07:04.673Z,140
2018-01-30T11:07:30.200Z,140
2018-01-30T11:08:59.294Z,175
2018-01-30T11:09:24.771Z,180
2018-01-30T11:09:50.266Z,180
2018-01-30T11:10:15.718Z,185
2018-01-30T11:10:41.213Z,160
2018-01-30T11:11:06.705Z,160
2018-01-30T11:11:32.217Z,165
2018-01-30T11:13:01.358Z,140
2018-01-30T11:13:26.843Z,145
2018-01-30T11:13:52.357Z,145
2018-01-30T11:14:17.875Z,160
2018-01-30T11:14:43.360Z,155
2018-01-30T11:15:08.876Z,140
2018-01-30T11:15:34.358Z,140
2018-01-30T11:15:59.818Z,155
2018-01-30T11:16:25.279Z,145
2018-01-30T11:16:50.854Z,130
2018-01-30T11:17:16.325Z,130
2018-01-30T11:17:41.783Z,140
2018-01-30T11:18:07.261Z,160
2018-01-30T11:18:32.775Z,155
2018-01-30T11:18:58.264Z,135
2018-01-30T11:19:23.762Z,125
2018-01-30T11:19:49.275Z,125
2018-01-30T11:20:14.785Z,130
2018-01-30T11:20:40.255Z,140
2018-01-30T11:21:05.774Z,145
2018-01-30T11:21:31.258Z,150
2018-01-30T11:23:00.356Z,120
2018-01-30T11:23:25.833Z,115
2018-01-30T11:23:51.302Z,125
2018-01-30T11:24:16.826Z,135
2018-01-30T11:24:42.317Z,135
2018-01-30T11:25:07.800Z,125
2018-01-30T11:25:33.310Z,125
2018-01-30T11:25:58.799Z,125
2018-01-30T11:26:24.265Z,130
2018-01-30T11:26:49.788Z,125
2018-01-30T11:27:15.269Z,125
2018-01-30T11:27:40.773Z,130
2018-01-30T11:28:06.289Z,135
2018-01-30T11:28:31.767Z,150
2018-01-30T11:28:57.271Z,165
2018-01-30T11:29:22.798Z,160
2018-01-30T11:29:48.370Z,145
2018-01-30T11:30:13.846Z,140
2018-01-30T11:30:39.334Z,135
2018-01-30T11:31:04.841Z,135
2018-01-30T11:31:30.370Z,135
2018-01-30T11:31:55.914Z,145
2018-01-30T11:33:05.642Z,165
2018-01-30T11:33:31.146Z,155
2018-01-30T11:33:56.697Z,140
2018-01-30T11:34:22.146Z,130
2018-01-30T11:34:47.608Z,130
2018-01-30T11:35:13.102Z,140
2018-01-30T11:36:37.105Z,125
2018-01-30T11:37:02.578Z,130
2018-01-30T11:37:28.064Z,145
2018-01-30T11:37:53.590Z,155
2018-01-30T11:38:19.053Z,145
2018-01-30T11:38:44.553Z,135
2018-01-30T11:39:10.066Z,125
2018-01-30T11:39:35.528Z,120
2018-01-30T11:40:01.030Z,130
2018-01-30T11:40:26.568Z,135
2018-01-30T11:41:45.452Z,140
2018-01-30T11:42:10.965Z,130
2018-01-30T11:42:36.457Z,125
2018-01-30T11:43:01.891Z,140
2018-01-30T11:44:10.604Z,150
2018-01-30T11:44:36.085Z,145
2018-01-30T11:45:01.566Z,145
2018-01-30T11:45:27.073Z,155
2018-01-30T11:45:52.582Z,165
2018-01-30T11:46:18.067Z,175
2018-01-30T11:46:43.578Z,175
2018-01-30T11:47:09.059Z,165
2018-01-30T11:47:34.536Z,160
2018-01-30T11:48:00.011Z,165
2018-01-30T11:48:25.482Z,175
2018-01-30T11:48:50.980Z,175
2018-01-30T11:49:16.449Z,170
2018-01-30T11:49:41.935Z,165
2018-01-30T11:50:07.441Z,165
2018-01-30T11:50:32.917Z,165
2018-01-30T11:50:58.442Z,165
2018-01-30T11:51:23.909Z,175
2018-01-30T11:51:49.397Z,165
2018-01-30T11:52:14.903Z,155
2018-01-30T11:52:40.432Z,145
2018-01-30T11:53:05.952Z,145
2018-01-30T11:53:31.467Z,140
2018-01-30T11:53:56.959Z,135
2018-01-30T11:54:22.434Z,135
2018-01-30T11:54:47.927Z,135
2018-01-30T11:55:13.472Z,130
2018-01-30T11:55:38.960Z,125
2018-01-30T11:56:04.462Z,120
2018-01-30T11:56:29.931Z,120
2018-01-30T11:56:55.461Z,115
2018-01-30T11:57:21.011Z,115
2018-01-30T11:57:46.522Z,115
2018-01-30T11:58:12.036Z,120
2018-01-30T11:59:30.954Z,120
2018-01-30T11:59:56.431Z,120